createdAt,value
2019-03-12T00:02:09.052Z,9.43
2019-03-12T00:04:37.843Z,18.20
2019-03-12T00:07:06.628Z,9.18
2019-03-12T00:09:35.438Z,25.92
2019-03-12T00:12:04.231Z,10.85
2019-03-12T00:14:33.144Z,14.55
2019-03-12T00:17:01.960Z,12.23
2019-03-12T00:19:30.940Z,14.58
2019-03-12T00:22:00.836Z,12.58
2019-03-12T00:24:30.547Z,22.42
2019-03-12T00:26:59.358Z,11.97
2019-03-12T00:29:28.536Z,13.50
2019-03-12T00:31:58.127Z,14.00
2019-03-12T00:34:27.966Z,12.75
2019-03-12T00:36:57.869Z,11.15
2019-03-12T00:39:27.492Z,17.27
2019-03-12T00:41:56.777Z,8.20
2019-03-12T00:44:25.892Z,14.35
2019-03-12T00:46:54.707Z,15.13
2019-03-12T00:49:24.285Z,12.05
2019-03-12T00:51:53.634Z,18.20
2019-03-12T00:54:23.539Z,9.63
2019-03-12T00:56:53.237Z,9.63
2019-03-12T00:59:22.444Z,8.63
2019-03-12T01:01:52.424Z,12.75
2019-03-12T01:04:21.933Z,8.98
2019-03-12T01:06:51.169Z,9.20
2019-03-12T01:09:20.322Z,9.25
2019-03-12T01:11:50.247Z,16.75
2019-03-12T01:14:19.052Z,12.07
2019-03-12T01:16:48.194Z,14.78
2019-03-12T01:19:17.021Z,14.73
2019-03-12T01:21:45.882Z,14.85
2019-03-12T01:24:15.162Z,9.80
2019-03-12T01:26:44.047Z,13.22
2019-03-12T01:29:13.164Z,16.35
2019-03-12T01:31:41.967Z,9.30
2019-03-12T01:34:11.149Z,8.50
2019-03-12T01:36:40.329Z,7.95
2019-03-12T01:39:09.569Z,12.82
2019-03-12T01:41:39.049Z,15.50
2019-03-12T01:44:07.853Z,18.90
2019-03-12T01:46:36.658Z,11.25
2019-03-12T01:49:05.987Z,9.55
2019-03-12T01:51:34.775Z,9.63
2019-03-12T01:54:03.937Z,13.90
2019-03-12T01:56:33.173Z,14.18
2019-03-12T01:59:03.082Z,11.38
2019-03-12T02:01:32.892Z,12.45
2019-03-12T02:04:02.835Z,13.60
2019-03-12T02:06:32.078Z,15.38
2019-03-12T02:09:00.911Z,12.68
2019-03-12T02:11:30.094Z,13.70
2019-03-12T02:13:59.299Z,11.95
2019-03-12T02:16:28.075Z,17.02
2019-03-12T02:18:57.284Z,14.47
2019-03-12T02:21:26.934Z,14.07
2019-03-12T02:23:56.034Z,18.67
2019-03-12T02:26:25.134Z,16.50
2019-03-12T02:28:53.939Z,15.60
2019-03-12T02:31:22.716Z,15.05
2019-03-12T02:33:51.878Z,15.28
2019-03-12T02:36:20.750Z,21.05
2019-03-12T02:38:49.667Z,18.30
2019-03-12T02:41:18.792Z,17.10
2019-03-12T02:43:47.594Z,19.73
2019-03-12T02:46:16.769Z,12.85
2019-03-12T02:48:45.546Z,17.52
2019-03-12T02:51:14.348Z,28.17
2019-03-12T02:53:43.901Z,24.10
2019-03-12T02:56:12.677Z,19.60
2019-03-12T02:58:41.467Z,26.73
2019-03-12T03:01:10.316Z,19.25
2019-03-12T03:03:39.426Z,19.75
2019-03-12T03:06:23.113Z,21.80
2019-03-12T03:08:51.975Z,16.95
2019-03-12T03:11:21.165Z,20.48
2019-03-12T03:13:50.526Z,24.70
2019-03-12T03:16:23.715Z,24.72
2019-03-12T03:18:50.898Z,24.95
2019-03-12T03:21:19.735Z,27.60
2019-03-12T03:23:48.596Z,18.62
2019-03-12T03:26:17.680Z,24.80
2019-03-12T03:28:46.835Z,27.67
2019-03-12T03:31:16.062Z,22.15
2019-03-12T03:33:45.175Z,25.48
2019-03-12T03:36:13.978Z,26.02
2019-03-12T03:38:42.765Z,21.12
2019-03-12T03:41:11.628Z,23.70
2019-03-12T03:43:40.892Z,26.57
2019-03-12T03:46:10.544Z,25.37
2019-03-12T03:48:39.787Z,25.43
2019-03-12T03:51:08.605Z,34.73
2019-03-12T03:53:37.417Z,30.92
2019-03-12T03:56:06.268Z,30.55
2019-03-12T03:58:35.840Z,29.82
2019-03-12T04:01:05.486Z,36.65
2019-03-12T04:03:34.237Z,34.25
2019-03-12T04:06:03.152Z,41.02
2019-03-12T04:08:32.331Z,36.33
2019-03-12T04:11:01.112Z,38.83
2019-03-12T04:13:30.770Z,41.95
2019-03-12T04:15:59.595Z,48.23
2019-03-12T04:18:28.413Z,36.63
2019-03-12T04:20:57.269Z,32.95
2019-03-12T04:23:26.232Z,48.95
2019-03-12T04:25:55.437Z,38.05
2019-03-12T04:28:24.255Z,48.38
2019-03-12T04:30:53.045Z,48.87
2019-03-12T04:34:18.762Z,47.80
2019-03-12T04:36:49.086Z,40.28
2019-03-12T04:39:17.981Z,50.00
2019-03-12T04:41:46.777Z,52.17
2019-03-12T04:44:15.632Z,50.92
2019-03-12T04:46:44.450Z,49.88
2019-03-12T04:49:13.277Z,48.83
2019-03-12T04:51:42.141Z,42.30
2019-03-12T04:54:10.936Z,42.08
2019-03-12T04:56:39.818Z,48.90
2019-03-12T04:59:08.719Z,54.00
2019-03-12T05:01:37.929Z,44.93
2019-03-12T05:04:06.800Z,46.77
2019-03-12T05:06:36.034Z,51.40
2019-03-12T05:09:08.326Z,49.55
2019-03-12T05:11:37.614Z,49.08
2019-03-12T05:14:42.773Z,34.00
2019-03-12T05:17:17.135Z,49.23
2019-03-12T05:19:47.281Z,53.85
2019-03-12T05:22:18.159Z,57.08
2019-03-12T05:24:46.979Z,54.27
2019-03-12T05:27:15.863Z,51.25
2019-03-12T05:29:44.776Z,55.65
2019-03-12T05:32:13.654Z,61.63
2019-03-12T05:34:42.444Z,56.15
2019-03-12T05:37:11.257Z,52.45
2019-03-12T05:39:40.072Z,54.63
2019-03-12T05:42:09.018Z,56.35
2019-03-12T05:44:37.913Z,55.38
2019-03-12T05:47:08.301Z,61.73
2019-03-12T05:49:37.639Z,57.67
2019-03-12T05:52:06.620Z,67.58
2019-03-12T05:54:35.407Z,65.03
2019-03-12T05:57:04.563Z,68.78
2019-03-12T05:59:33.440Z,54.55
2019-03-12T06:02:02.617Z,56.13
2019-03-12T06:04:31.768Z,45.73
2019-03-12T06:07:00.558Z,56.92
2019-03-12T06:09:30.503Z,49.15
2019-03-12T06:12:00.049Z,42.65
2019-03-12T06:14:28.953Z,36.65
2019-03-12T06:16:57.737Z,39.98
2019-03-12T06:19:28.836Z,40.67
2019-03-12T06:21:57.718Z,36.28
2019-03-12T06:24:26.543Z,27.87
2019-03-12T06:26:55.391Z,23.02
2019-03-12T06:29:24.180Z,31.90
2019-03-12T06:32:10.620Z,28.90
2019-03-12T06:34:49.825Z,36.90
2019-03-12T06:37:26.429Z,23.00
2019-03-12T06:40:29.893Z,25.27
2019-03-12T06:43:21.310Z,24.57
2019-03-12T06:46:11.939Z,26.87
2019-03-12T06:48:47.659Z,21.70
2019-03-12T06:51:40.568Z,20.20
2019-03-12T06:54:15.347Z,25.90
2019-03-12T06:57:09.297Z,22.80
2019-03-12T06:59:57.104Z,15.35
2019-03-12T07:02:48.326Z,27.15
2019-03-12T07:05:36.057Z,14.53
2019-03-12T07:08:27.035Z,17.20
2019-03-12T07:11:32.598Z,17.27
2019-03-12T07:14:31.080Z,18.77
2019-03-12T07:17:10.856Z,16.15
2019-03-12T07:20:13.336Z,14.25
2019-03-12T07:22:58.497Z,18.05
2019-03-12T07:25:50.893Z,12.45
2019-03-12T07:28:33.149Z,13.13
2019-03-12T07:31:08.281Z,14.53
2019-03-12T07:33:53.764Z,12.90
2019-03-12T07:36:44.593Z,10.63
2019-03-12T07:39:32.164Z,12.78
2019-03-12T07:42:23.118Z,15.58
2019-03-12T07:45:05.169Z,10.48
2019-03-12T07:47:42.167Z,9.88
2019-03-12T07:50:35.330Z,11.50
2019-03-12T07:53:29.910Z,16.23
2019-03-12T07:56:21.842Z,8.03
2019-03-12T07:58:57.912Z,17.42
2019-03-12T08:01:41.684Z,14.38
2019-03-12T08:04:21.182Z,11.97
2019-03-12T08:07:04.127Z,10.70
2019-03-12T08:10:01.209Z,16.32
2019-03-12T08:13:04.100Z,15.65
2019-03-12T08:15:50.514Z,14.73
2019-03-12T08:18:37.216Z,16.73
2019-03-12T08:21:40.509Z,11.95
2019-03-12T08:24:24.501Z,18.62
2019-03-12T08:27:05.186Z,13.83
2019-03-12T08:29:43.712Z,19.35
2019-03-12T08:32:19.248Z,10.53
2019-03-12T08:34:54.372Z,10.48
2019-03-12T08:37:32.823Z,20.97
2019-03-12T08:40:27.111Z,21.15
2019-03-12T08:43:13.790Z,11.38
2019-03-12T08:46:00.582Z,12.30
2019-03-12T08:48:39.325Z,17.57
2019-03-12T08:51:30.058Z,11.22
2019-03-12T08:54:08.644Z,12.23
2019-03-12T08:56:59.475Z,11.95
2019-03-12T08:59:53.301Z,9.78
2019-03-12T09:02:40.265Z,12.90
2019-03-12T09:05:28.237Z,13.85
2019-03-12T09:08:17.370Z,11.38
2019-03-12T09:11:11.030Z,13.70
2019-03-12T09:13:55.194Z,17.05
2019-03-12T09:16:55.290Z,25.30
2019-03-12T09:19:37.602Z,19.45
2019-03-12T09:22:25.073Z,14.20
2019-03-12T09:25:12.154Z,16.32
2019-03-12T09:28:21.538Z,13.05
2019-03-12T09:31:09.937Z,16.55
2019-03-12T09:33:54.710Z,15.80
2019-03-12T09:36:48.540Z,17.73
2019-03-12T09:39:26.519Z,15.65
2019-03-12T09:42:02.340Z,12.58
2019-03-12T09:44:56.416Z,12.75
2019-03-12T09:47:31.283Z,16.27
2019-03-12T09:50:19.193Z,19.27
2019-03-12T09:53:03.068Z,15.28
2019-03-12T09:55:41.758Z,13.20
2019-03-12T09:58:20.099Z,14.40
2019-03-12T10:01:08.030Z,16.75
2019-03-12T10:03:58.958Z,11.25
2019-03-12T10:06:52.712Z,19.05
2019-03-12T10:12:17.122Z,11.45
2019-03-12T10:14:56.641Z,11.75
2019-03-12T10:17:34.279Z,9.93
2019-03-12T10:20:21.498Z,16.55
2019-03-12T10:23:19.052Z,11.88
2019-03-12T10:26:06.866Z,14.35
2019-03-12T10:28:53.573Z,17.65
2019-03-12T10:31:33.213Z,20.32
2019-03-12T10:34:29.830Z,17.02
2019-03-12T10:37:12.184Z,13.20
2019-03-12T10:40:24.965Z,13.28
2019-03-12T10:43:21.295Z,15.38
2019-03-12T10:46:09.295Z,13.15
2019-03-12T10:48:38.487Z,15.03
2019-03-12T10:51:08.146Z,9.55
2019-03-12T10:53:40.234Z,10.15
2019-03-12T10:56:09.033Z,11.48
2019-03-12T10:58:37.908Z,20.50
2019-03-12T11:01:06.873Z,13.20
2019-03-12T11:03:35.737Z,13.25
2019-03-12T11:06:04.713Z,9.10
2019-03-12T11:08:33.598Z,9.78
2019-03-12T11:11:02.468Z,10.30
2019-03-12T11:13:31.360Z,14.28
2019-03-12T11:16:00.144Z,10.13
2019-03-12T11:18:29.007Z,7.33
2019-03-12T11:21:04.427Z,10.98
2019-03-12T11:23:33.813Z,14.00
2019-03-12T11:26:02.702Z,9.25
2019-03-12T11:28:31.798Z,8.60
2019-03-12T11:31:00.622Z,15.08
2019-03-12T11:33:29.441Z,14.30
2019-03-12T11:35:58.247Z,15.55
2019-03-12T11:38:27.146Z,13.00
2019-03-12T11:40:55.981Z,10.78
2019-03-12T11:43:24.869Z,15.78
2019-03-12T11:45:53.650Z,14.30
2019-03-12T11:48:22.822Z,13.32
2019-03-12T11:50:51.674Z,13.55
2019-03-12T11:53:20.489Z,8.18
2019-03-12T11:55:49.291Z,7.67
2019-03-12T11:58:18.170Z,8.48
2019-03-12T12:01:01.785Z,20.05
2019-03-12T12:03:30.630Z,7.85
2019-03-12T12:05:59.808Z,9.03
2019-03-12T12:08:28.748Z,9.75
2019-03-12T12:10:57.602Z,8.30
2019-03-12T12:13:26.425Z,9.85
2019-03-12T12:15:55.280Z,14.45
2019-03-12T12:18:24.156Z,12.55
2019-03-12T12:20:53.033Z,13.05
2019-03-12T12:23:21.821Z,12.93
2019-03-12T12:25:54.523Z,18.17
2019-03-12T12:28:23.426Z,6.83
2019-03-12T12:30:52.355Z,10.90
2019-03-12T12:33:21.155Z,6.25
2019-03-12T12:35:49.971Z,12.00
2019-03-12T12:38:18.851Z,9.30
2019-03-12T12:40:47.628Z,8.85
2019-03-12T12:43:16.502Z,14.33
2019-03-12T12:45:45.823Z,10.43
2019-03-12T12:48:14.681Z,14.30
2019-03-12T12:50:43.583Z,11.57
2019-03-12T12:53:12.459Z,8.43
2019-03-12T12:55:41.268Z,9.08
2019-03-12T12:58:10.240Z,13.10
2019-03-12T13:00:39.147Z,14.65
2019-03-12T13:03:07.979Z,9.35
2019-03-12T13:05:36.781Z,12.53
2019-03-12T13:08:06.181Z,14.00
2019-03-12T13:10:38.031Z,13.80
2019-03-12T13:13:13.062Z,11.60
2019-03-12T13:15:42.511Z,12.15
2019-03-12T13:18:11.359Z,7.22
2019-03-12T13:20:40.289Z,9.33
2019-03-12T13:23:09.175Z,9.03
2019-03-12T13:25:38.056Z,12.28
2019-03-12T13:28:06.960Z,11.83
2019-03-12T13:30:35.932Z,4.03
2019-03-12T13:33:05.964Z,9.93
2019-03-12T13:35:34.890Z,10.18
2019-03-12T13:38:03.792Z,7.97
2019-03-12T13:40:32.802Z,9.53
2019-03-12T13:43:01.907Z,9.18
2019-03-12T13:45:31.282Z,4.87
2019-03-12T13:48:00.424Z,8.03
2019-03-12T13:50:29.569Z,8.50
2019-03-12T13:52:58.479Z,8.68
2019-03-12T13:55:27.393Z,7.45
2019-03-12T13:57:56.214Z,13.55
2019-03-12T14:00:25.565Z,6.08
2019-03-12T14:02:54.487Z,5.58
2019-03-12T14:05:23.415Z,9.58
2019-03-12T14:07:52.737Z,6.25
2019-03-12T14:10:22.025Z,17.10
2019-03-12T14:12:51.489Z,10.58
2019-03-12T14:15:28.668Z,6.72
2019-03-12T14:17:58.933Z,8.28
2019-03-12T14:21:01.082Z,12.45
2019-03-12T14:23:41.505Z,13.03
2019-03-12T14:26:10.741Z,7.75
2019-03-12T14:28:40.553Z,8.88
2019-03-12T14:31:09.576Z,6.60
2019-03-12T14:33:38.517Z,7.53
2019-03-12T14:36:07.547Z,3.58
2019-03-12T14:38:36.732Z,7.47
2019-03-12T14:41:05.729Z,7.15
2019-03-12T14:43:34.502Z,9.63
2019-03-12T14:46:03.456Z,6.75
2019-03-12T14:48:43.800Z,8.40
2019-03-12T14:51:50.003Z,10.10
2019-03-12T14:54:18.932Z,7.05
2019-03-12T14:56:47.891Z,5.60
2019-03-12T14:59:16.745Z,6.20
2019-03-12T15:01:45.681Z,8.05
2019-03-12T15:04:15.249Z,8.00
2019-03-12T15:06:44.293Z,6.80
2019-03-12T15:09:14.690Z,12.00
2019-03-12T15:11:43.626Z,13.72
2019-03-12T15:14:12.487Z,8.43
2019-03-12T15:16:41.808Z,8.68
2019-03-12T15:19:10.659Z,7.47
2019-03-12T15:21:39.614Z,6.28
2019-03-12T15:24:08.421Z,8.13
2019-03-12T15:26:37.337Z,10.50
2019-03-12T15:29:06.314Z,10.38
2019-03-12T15:31:35.279Z,9.13
2019-03-12T15:34:04.218Z,7.12
2019-03-12T15:36:33.025Z,15.50
2019-03-12T15:39:01.807Z,6.58
2019-03-12T15:41:31.399Z,5.12
2019-03-12T15:44:00.195Z,6.92
2019-03-12T15:46:29.400Z,9.93
2019-03-12T15:48:58.203Z,15.50
2019-03-12T15:51:27.068Z,8.98
2019-03-12T15:53:56.749Z,12.73
2019-03-12T15:56:25.853Z,13.65
2019-03-12T15:58:54.989Z,14.78
2019-03-12T16:01:23.997Z,9.50
2019-03-12T16:03:54.155Z,12.60
2019-03-12T16:06:26.288Z,15.08
2019-03-12T16:08:54.584Z,13.48
2019-03-12T16:11:23.373Z,14.75
2019-03-12T16:13:52.289Z,13.13
2019-03-12T16:16:22.457Z,13.22
2019-03-12T16:18:51.433Z,9.68
2019-03-12T16:21:23.793Z,7.92
2019-03-12T16:23:54.336Z,7.70
2019-03-12T16:26:23.494Z,6.25
2019-03-12T16:28:52.894Z,5.47
2019-03-12T16:31:22.124Z,11.60
2019-03-12T16:33:50.978Z,7.80
2019-03-12T16:36:19.763Z,11.50
2019-03-12T16:38:48.716Z,10.98
2019-03-12T16:41:17.631Z,11.63
2019-03-12T16:43:46.416Z,7.65
2019-03-12T16:46:15.262Z,8.28
2019-03-12T16:48:44.114Z,10.58
2019-03-12T16:51:12.991Z,6.42
2019-03-12T16:53:41.778Z,9.75
2019-03-12T16:56:10.643Z,9.75
2019-03-12T16:58:39.422Z,7.33
2019-03-12T17:01:09.214Z,8.45
2019-03-12T17:03:39.634Z,11.73
2019-03-12T17:06:09.238Z,6.78
2019-03-12T17:08:38.404Z,10.30
2019-03-12T17:11:07.728Z,12.78
2019-03-12T17:13:36.868Z,9.18
2019-03-12T17:16:06.132Z,11.93
2019-03-12T17:18:35.301Z,11.48
2019-03-12T17:21:04.125Z,10.45
2019-03-12T17:23:33.216Z,8.70
2019-03-12T17:26:02.407Z,10.08
2019-03-12T17:28:31.228Z,8.80
2019-03-12T17:31:00.110Z,9.80
2019-03-12T17:33:28.901Z,10.50
2019-03-12T17:35:57.729Z,7.70
2019-03-12T17:38:26.851Z,5.60
2019-03-12T17:40:55.655Z,8.83
2019-03-12T17:43:24.468Z,8.13
2019-03-12T17:45:53.333Z,12.63
2019-03-12T17:48:22.110Z,10.38
2019-03-12T17:50:50.932Z,5.20
2019-03-12T17:53:19.693Z,7.95
2019-03-12T17:55:48.575Z,9.70
2019-03-12T17:58:17.469Z,7.45
2019-03-12T18:00:46.706Z,8.25
2019-03-12T18:03:16.173Z,8.58
2019-03-12T18:05:45.395Z,10.80
2019-03-12T18:08:14.975Z,12.55
2019-03-12T18:10:44.165Z,9.35
2019-03-12T18:13:13.326Z,9.43
2019-03-12T18:15:42.508Z,8.78
2019-03-12T18:18:12.013Z,7.62
2019-03-12T18:20:43.959Z,7.60
2019-03-12T18:23:12.214Z,11.65
2019-03-12T18:25:41.472Z,4.05
2019-03-12T18:28:10.629Z,8.85
2019-03-12T18:30:40.101Z,20.45
2019-03-12T18:33:09.563Z,17.25
2019-03-12T18:35:39.070Z,9.63
2019-03-12T18:38:08.667Z,29.70
2019-03-12T18:40:37.847Z,8.03
2019-03-12T18:43:07.256Z,4.85
2019-03-12T18:45:36.638Z,4.87
2019-03-12T18:48:05.776Z,7.95
2019-03-12T18:50:35.071Z,11.45
2019-03-12T18:53:04.963Z,10.50
2019-03-12T18:56:11.331Z,5.95
2019-03-12T18:58:40.542Z,11.50
2019-03-12T19:01:15.105Z,10.25
2019-03-12T19:03:44.435Z,7.28
2019-03-12T19:06:13.775Z,9.48
2019-03-12T19:08:48.010Z,4.33
2019-03-12T19:11:15.123Z,11.93
2019-03-12T19:13:44.881Z,4.08
2019-03-12T19:16:14.177Z,12.90
2019-03-12T19:18:43.457Z,5.97
2019-03-12T19:21:12.317Z,6.95
2019-03-12T19:23:41.950Z,6.45
2019-03-12T19:26:12.082Z,6.42
2019-03-12T19:28:41.241Z,6.95
2019-03-12T19:31:24.293Z,5.90
2019-03-12T19:33:54.570Z,3.50
2019-03-12T19:36:23.614Z,2.75
2019-03-12T19:38:52.478Z,3.58
2019-03-12T19:41:22.007Z,3.45
2019-03-12T19:43:51.536Z,5.12
2019-03-12T19:46:21.247Z,6.95
2019-03-12T19:48:50.520Z,5.60
2019-03-12T19:51:19.766Z,5.28
2019-03-12T19:53:48.637Z,5.33
2019-03-12T19:56:17.630Z,6.10
2019-03-12T19:58:46.734Z,4.53
2019-03-12T20:01:16.186Z,2.25
2019-03-12T20:03:45.059Z,5.10
2019-03-12T20:06:15.313Z,3.87
2019-03-12T20:08:44.833Z,9.30
2019-03-12T20:11:41.033Z,9.78
2019-03-12T20:14:49.414Z,4.97
2019-03-12T20:18:23.425Z,11.55
2019-03-12T20:22:03.698Z,5.03
2019-03-12T20:25:07.481Z,5.40
2019-03-12T20:28:20.205Z,3.80
2019-03-12T20:31:15.808Z,7.90
2019-03-12T20:34:21.479Z,4.87
2019-03-12T20:37:42.081Z,7.22
2019-03-12T20:41:16.909Z,6.75
2019-03-12T20:47:09.749Z,3.83
2019-03-12T20:50:17.907Z,6.55
2019-03-12T20:53:23.029Z,5.87
2019-03-12T20:56:47.535Z,2.75
2019-03-12T21:02:43.649Z,8.33
2019-03-12T21:05:49.541Z,3.85
2019-03-12T21:08:55.838Z,3.80
2019-03-12T21:12:33.079Z,2.45
2019-03-12T21:15:52.837Z,3.27
2019-03-12T21:18:53.038Z,9.05
2019-03-12T21:22:03.604Z,5.33
2019-03-12T21:24:49.118Z,5.47
2019-03-12T21:27:24.403Z,7.28
2019-03-12T21:29:52.689Z,3.00
2019-03-12T21:32:21.665Z,4.25
2019-03-12T21:34:51.196Z,8.35
2019-03-12T21:37:20.282Z,7.37
2019-03-12T21:39:55.879Z,8.78
2019-03-12T21:42:20.879Z,6.00
2019-03-12T21:44:50.048Z,4.15
2019-03-12T21:47:19.313Z,4.25
2019-03-12T21:49:48.197Z,8.58
2019-03-12T21:52:18.154Z,6.40
2019-03-12T21:54:48.173Z,4.03
2019-03-12T21:57:16.966Z,4.67
2019-03-12T21:59:45.791Z,6.20
2019-03-12T22:02:15.199Z,4.75
2019-03-12T22:04:43.974Z,3.55
2019-03-12T22:07:12.881Z,3.60
2019-03-12T22:09:41.684Z,2.92
2019-03-12T22:12:10.468Z,6.25
2019-03-12T22:14:39.375Z,5.37
2019-03-12T22:17:08.214Z,3.52
2019-03-12T22:19:37.386Z,5.45
2019-03-12T22:22:24.547Z,6.40
2019-03-12T22:24:54.131Z,2.20
2019-03-12T22:27:22.895Z,5.50
2019-03-12T22:29:51.745Z,9.80
2019-03-12T22:32:20.542Z,3.60
2019-03-12T22:34:49.433Z,5.10
2019-03-12T22:37:18.361Z,3.65
2019-03-12T22:39:47.275Z,4.20
2019-03-12T22:42:16.040Z,5.50
2019-03-12T22:44:45.149Z,2.37
2019-03-12T22:47:13.951Z,5.25
2019-03-12T22:49:43.149Z,5.15
2019-03-12T22:52:12.951Z,4.37
2019-03-12T22:54:41.854Z,2.35
2019-03-12T22:57:11.185Z,3.65
2019-03-12T22:59:39.995Z,3.58
2019-03-12T23:02:09.580Z,4.37
2019-03-12T23:04:38.754Z,7.00
2019-03-12T23:07:07.698Z,3.35
2019-03-12T23:09:36.974Z,4.22
2019-03-12T23:12:06.455Z,3.98
2019-03-12T23:14:35.328Z,3.27
2019-03-12T23:17:04.648Z,2.60
2019-03-12T23:19:34.284Z,3.22
2019-03-12T23:22:03.465Z,2.22
2019-03-12T23:24:32.320Z,1.82
2019-03-12T23:27:01.128Z,2.50
2019-03-12T23:29:30.347Z,1.32
2019-03-12T23:31:59.304Z,0.70
2019-03-12T23:34:28.089Z,0.70
2019-03-12T23:36:57.026Z,0.85
2019-03-12T23:39:28.195Z,2.27
2019-03-12T23:41:56.972Z,0.90
2019-03-12T23:45:09.677Z,0.62
2019-03-12T23:47:38.970Z,0.62
2019-03-12T23:50:09.604Z,1.05
2019-03-12T23:52:38.931Z,1.45
2019-03-12T23:55:08.700Z,1.37
2019-03-12T23:57:43.501Z,1.70
